Terminal Aerodrome Forecast
Issued by NWS

Home | Current Version | Previous Version | Text Only | Print | Product List | Glossary On
Versions: 1 2 3 4 5 6 7 8 9 10 11 12 13 14 15 16
000
FTUS45 KBOU 201747
TAFAPA
TAF
KAPA 201747Z 2018/2118 22013KT P6SM FEW220
     FM201900 25010KT P6SM FEW220
     FM210700 28008KT P6SM SCT200
     FM210900 34014G20KT P6SM SCT100 BKN200
     FM211700 33018G25KT P6SM SCT250=

USA.gov is the U.S. government's official web portal to all federal, state and local government web resources and services.